Terminal Aerodrome Forecast
Issued by NWS

Home | Current Version | Previous Version | Text Only | Print | Product List | Glossary On
Versions: 1 2 3 4 5 6 7 8 9 10 11 12 13 14 15 16 17 18 19 20 21 22
000
FTAK31 PAJN 012343
TAFAPG
TAF
PAPG 012343Z 0200/0224 05004KT P6SM VCSH SCT015 SCT025 BKN090
      TEMPO 0200/0204 00000KT BKN015 BKN025
     FM020400 VRB02KT P6SM FEW003 SCT050 BKN100
     FM021000 00000KT 4SM BR VCFG SCT003 BKN050
     FM021200 00000KT 1/2SM FG VV002
     FM021500 VRB02KT 4SM BR VCFG FEW003 BKN050
     FM022100 06005KT P6SM BKN050 OVC070=

USA.gov is the U.S. government's official web portal to all federal, state and local government web resources and services.